SAWH

Malvinas Argentinas Airport

Ushuahia, Argentina
TAF SAWH 182300Z 1900/1924 32015G30KT 9999 BKN030 OVC060 TX15/1919Z TN09/1923Z BECMG 1912/1914 25015KT -RA BKN25 BKN080 BECMG 1918/1920 VRB05KT NSW
Issued Valid From Valid To
Jan-18 @ 23:00 UTC
(3 hours ago)
Jan-19 @ 00:00 UTC
(2 hours ago)
Jan-20 @ 00:00 UTC
(in 22 hours)
Jan-19 @ 00:00 to Jan-19 @ 12:00
TAF SAWH 182300Z 1900/1924 32015G30KT 9999 BKN030 OVC060 TX15/1919Z TN09/1923Z
Wind Visibility Clouds
320° at 15 knots
 Gusting to 30 knots
10,000+ meters
  • Broken at 3,000' AGL
  • Overcast at 6,000' AGL
Becoming Jan-19 @ 12:00 to Jan-19 @ 18:00
BECMG 1912/1914 25015KT -RA BKN25 BKN080
Wind Visibility Clouds Conditions
250° at 15 knots 10,000+ meters
  • Broken at 8,000' AGL
  • Light Rain
Becoming Jan-19 @ 18:00 to Jan-20 @ 00:00
BECMG 1918/1920 VRB05KT NSW
Wind Visibility Clouds Conditions
Variable at 5 knots 10,000+ meters
  • Broken at 8,000' AGL
TAF SAWH 182300Z 1900/1924 32015G30KT 9999 BKN030 OVC060 TX15/1919Z TN09/1923Z BECMG 1912/1914 25015KT -RA BKN25 BKN080 BECMG 1918/1920 VRB05KT NSW
Issued Jan-18 @ 23:00 UTC
(3 hours ago)
Valid From Jan-19 @ 00:00 UTC
(2 hours ago)
Valid To Jan-20 @ 00:00 UTC
(in 22 hours)
Jan-19 @ 00:00 - Jan-19 @ 12:00
Wind Visibility
320° at 15 knots
 Gusting to 30 knots
10,000+ meters
Clouds
  • Broken at 3,000' AGL
  • Overcast at 6,000' AGL
Becoming Jan-19 @ 12:00 - Jan-19 @ 18:00
Wind Visibility
250° at 15 knots 10,000+ meters
Clouds
  • Broken at 8,000' AGL
Conditions
  • Light Rain
Becoming Jan-19 @ 18:00 - Jan-20 @ 00:00
Wind Visibility
Variable at 5 knots 10,000+ meters
Clouds
  • Broken at 8,000' AGL
Conditions